Rockport, Washington
Current Conditions -  °F | °C
As of 6:15 AM on Monday 24 Nov 2014 (Local Time) from KAWO Reporting Station
Broken Clouds Broken Clouds  
Wind Chill: 41°   Ceiling: 3000
Heat Index: 41°   Visibility: 10mi
Dew Point: 36°   Wind: 0mph
Humidity: 81%   Direction: NA
Pressure: 30.34"   Gusts: NA
Location:  48.49°N, 121.6°W
Report Text: KAWO 241415Z AUTO 00000KT 10SM BKN030 05/02 A3034 RMK AO1
Loading
Personal Weather Stations






























Interactive Weather Map New forecast layout! Learn more

10-Day Weather Forecast

Advertisements
Track Severe Weather on mobile